sensor_id;sensor_type;location;lat;lon;timestamp;P1;durP1;ratioP1;P2;durP2;ratioP2
20069;SDS011;10195;50.868;4.382;2023-04-06T00:01:37;19.20;;;11.00;;
20069;SDS011;10195;50.868;4.382;2023-04-06T00:04:04;15.17;;;9.97;;
20069;SDS011;10195;50.868;4.382;2023-04-06T00:06:30;17.53;;;9.57;;
20069;SDS011;10195;50.868;4.382;2023-04-06T00:08:56;18.33;;;10.67;;
20069;SDS011;10195;50.868;4.382;2023-04-06T00:11:22;21.83;;;10.37;;
20069;SDS011;10195;50.868;4.382;2023-04-06T00:13:48;16.50;;;9.30;;
20069;SDS011;10195;50.868;4.382;2023-04-06T00:16:13;17.07;;;10.20;;
20069;SDS011;10195;50.868;4.382;2023-04-06T00:18:39;15.90;;;9.90;;
20069;SDS011;10195;50.868;4.382;2023-04-06T00:21:05;20.63;;;10.17;;
20069;SDS011;10195;50.868;4.382;2023-04-06T00:23:31;17.43;;;10.30;;
20069;SDS011;10195;50.868;4.382;2023-04-06T00:25:56;18.17;;;10.20;;
20069;SDS011;10195;50.868;4.382;2023-04-06T00:28:22;22.67;;;9.87;;
20069;SDS011;10195;50.868;4.382;2023-04-06T00:30:53;20.07;;;10.30;;
20069;SDS011;10195;50.868;4.382;2023-04-06T00:33:20;18.27;;;10.27;;
20069;SDS011;10195;50.868;4.382;2023-04-06T00:35:46;17.93;;;9.47;;
20069;SDS011;10195;50.868;4.382;2023-04-06T00:38:12;18.67;;;10.30;;
20069;SDS011;10195;50.868;4.382;2023-04-06T00:40:39;17.93;;;10.67;;
20069;SDS011;10195;50.868;4.382;2023-04-06T00:43:07;16.50;;;10.00;;
20069;SDS011;10195;50.868;4.382;2023-04-06T00:45:34;17.83;;;10.37;;
20069;SDS011;10195;50.868;4.382;2023-04-06T00:48:00;19.63;;;10.43;;
20069;SDS011;10195;50.868;4.382;2023-04-06T00:50:26;19.47;;;10.57;;
20069;SDS011;10195;50.868;4.382;2023-04-06T00:52:52;16.07;;;10.60;;
20069;SDS011;10195;50.868;4.382;2023-04-06T00:55:19;18.00;;;10.77;;
20069;SDS011;10195;50.868;4.382;2023-04-06T00:57:45;18.70;;;10.50;;
20069;SDS011;10195;50.868;4.382;2023-04-06T01:00:11;17.53;;;10.40;;
20069;SDS011;10195;50.868;4.382;2023-04-06T01:02:37;18.23;;;10.63;;
20069;SDS011;10195;50.868;4.382;2023-04-06T01:05:03;17.77;;;10.33;;
20069;SDS011;10195;50.868;4.382;2023-04-06T01:07:30;18.37;;;10.47;;
20069;SDS011;10195;50.868;4.382;2023-04-06T01:09:55;19.43;;;10.70;;
20069;SDS011;10195;50.868;4.382;2023-04-06T01:12:21;17.30;;;10.07;;
20069;SDS011;10195;50.868;4.382;2023-04-06T01:14:47;16.97;;;10.50;;
20069;SDS011;10195;50.868;4.382;2023-04-06T01:17:13;16.77;;;10.97;;
20069;SDS011;10195;50.868;4.382;2023-04-06T01:19:39;18.23;;;10.60;;
20069;SDS011;10195;50.868;4.382;2023-04-06T01:22:06;18.30;;;11.33;;
20069;SDS011;10195;50.868;4.382;2023-04-06T01:24:32;19.20;;;10.83;;
20069;SDS011;10195;50.868;4.382;2023-04-06T01:26:58;20.13;;;11.40;;
20069;SDS011;10195;50.868;4.382;2023-04-06T01:29:24;19.40;;;11.37;;
20069;SDS011;10195;50.868;4.382;2023-04-06T01:31:49;18.83;;;10.43;;
20069;SDS011;10195;50.868;4.382;2023-04-06T01:34:15;22.90;;;10.77;;
20069;SDS011;10195;50.868;4.382;2023-04-06T01:36:41;23.00;;;11.43;;
20069;SDS011;10195;50.868;4.382;2023-04-06T01:39:10;20.07;;;11.67;;
20069;SDS011;10195;50.868;4.382;2023-04-06T01:41:36;22.57;;;12.57;;
20069;SDS011;10195;50.868;4.382;2023-04-06T01:44:01;22.20;;;12.17;;
20069;SDS011;10195;50.868;4.382;2023-04-06T01:46:27;19.67;;;12.07;;
20069;SDS011;10195;50.868;4.382;2023-04-06T01:48:53;20.23;;;11.53;;
20069;SDS011;10195;50.868;4.382;2023-04-06T01:51:19;21.00;;;11.87;;
20069;SDS011;10195;50.868;4.382;2023-04-06T01:53:45;19.40;;;11.83;;
20069;SDS011;10195;50.868;4.382;2023-04-06T01:56:11;22.83;;;11.80;;
20069;SDS011;10195;50.868;4.382;2023-04-06T01:58:36;22.07;;;12.50;;
20069;SDS011;10195;50.868;4.382;2023-04-06T02:01:02;18.23;;;11.83;;
20069;SDS011;10195;50.868;4.382;2023-04-06T02:03:28;22.63;;;12.87;;
20069;SDS011;10195;50.868;4.382;2023-04-06T02:05:53;22.27;;;12.37;;
20069;SDS011;10195;50.868;4.382;2023-04-06T02:08:19;18.67;;;12.17;;
20069;SDS011;10195;50.868;4.382;2023-04-06T02:10:45;22.13;;;11.80;;
20069;SDS011;10195;50.868;4.382;2023-04-06T02:13:10;18.70;;;11.67;;
20069;SDS011;10195;50.868;4.382;2023-04-06T02:15:36;21.23;;;11.33;;
20069;SDS011;10195;50.868;4.382;2023-04-06T02:18:02;20.57;;;11.77;;
20069;SDS011;10195;50.868;4.382;2023-04-06T02:20:28;21.33;;;11.90;;
20069;SDS011;10195;50.868;4.382;2023-04-06T02:22:53;20.07;;;12.17;;
20069;SDS011;10195;50.868;4.382;2023-04-06T02:25:21;21.20;;;11.73;;
20069;SDS011;10195;50.868;4.382;2023-04-06T02:27:47;20.47;;;10.90;;
20069;SDS011;10195;50.868;4.382;2023-04-06T02:30:13;18.43;;;11.37;;
20069;SDS011;10195;50.868;4.382;2023-04-06T02:32:38;21.17;;;11.53;;
20069;SDS011;10195;50.868;4.382;2023-04-06T02:35:04;20.13;;;11.73;;
20069;SDS011;10195;50.868;4.382;2023-04-06T02:37:30;20.10;;;11.90;;
20069;SDS011;10195;50.868;4.382;2023-04-06T02:39:56;20.77;;;12.17;;
20069;SDS011;10195;50.868;4.382;2023-04-06T02:42:21;20.30;;;12.27;;
20069;SDS011;10195;50.868;4.382;2023-04-06T02:44:47;20.40;;;12.63;;
20069;SDS011;10195;50.868;4.382;2023-04-06T02:47:13;21.10;;;11.73;;
20069;SDS011;10195;50.868;4.382;2023-04-06T02:49:41;21.07;;;12.10;;
20069;SDS011;10195;50.868;4.382;2023-04-06T02:52:07;26.03;;;12.50;;
20069;SDS011;10195;50.868;4.382;2023-04-06T02:54:33;23.67;;;12.33;;
20069;SDS011;10195;50.868;4.382;2023-04-06T02:56:58;18.57;;;11.57;;
20069;SDS011;10195;50.868;4.382;2023-04-06T02:59:24;20.07;;;12.43;;
20069;SDS011;10195;50.868;4.382;2023-04-06T03:01:50;19.33;;;11.87;;
20069;SDS011;10195;50.868;4.382;2023-04-06T03:04:16;23.73;;;11.73;;
20069;SDS011;10195;50.868;4.382;2023-04-06T03:06:41;19.93;;;12.33;;
20069;SDS011;10195;50.868;4.382;2023-04-06T03:09:07;30.73;;;12.77;;
20069;SDS011;10195;50.868;4.382;2023-04-06T03:11:33;20.10;;;12.47;;
20069;SDS011;10195;50.868;4.382;2023-04-06T03:13:58;22.60;;;12.37;;
20069;SDS011;10195;50.868;4.382;2023-04-06T03:16:24;20.17;;;12.70;;
20069;SDS011;10195;50.868;4.382;2023-04-06T03:18:50;23.03;;;12.10;;
20069;SDS011;10195;50.868;4.382;2023-04-06T03:21:15;24.30;;;12.67;;
20069;SDS011;10195;50.868;4.382;2023-04-06T03:23:41;21.80;;;12.43;;
20069;SDS011;10195;50.868;4.382;2023-04-06T03:26:07;19.50;;;12.17;;
20069;SDS011;10195;50.868;4.382;2023-04-06T03:28:33;21.30;;;12.43;;
20069;SDS011;10195;50.868;4.382;2023-04-06T03:30:59;20.87;;;12.73;;
20069;SDS011;10195;50.868;4.382;2023-04-06T03:33:25;23.10;;;12.73;;
20069;SDS011;10195;50.868;4.382;2023-04-06T03:35:54;22.30;;;12.67;;
20069;SDS011;10195;50.868;4.382;2023-04-06T03:38:19;20.10;;;12.30;;
20069;SDS011;10195;50.868;4.382;2023-04-06T03:40:45;24.73;;;13.00;;
20069;SDS011;10195;50.868;4.382;2023-04-06T03:43:11;26.33;;;14.23;;
20069;SDS011;10195;50.868;4.382;2023-04-06T03:45:37;27.70;;;13.87;;
20069;SDS011;10195;50.868;4.382;2023-04-06T03:48:02;22.33;;;13.27;;
20069;SDS011;10195;50.868;4.382;2023-04-06T03:50:28;24.93;;;13.30;;
20069;SDS011;10195;50.868;4.382;2023-04-06T03:52:54;21.27;;;13.10;;
20069;SDS011;10195;50.868;4.382;2023-04-06T03:55:20;25.43;;;13.03;;
20069;SDS011;10195;50.868;4.382;2023-04-06T03:57:46;23.27;;;12.87;;
20069;SDS011;10195;50.868;4.382;2023-04-06T04:00:11;23.87;;;12.87;;
20069;SDS011;10195;50.868;4.382;2023-04-06T04:02:38;20.80;;;12.73;;
20069;SDS011;10195;50.868;4.382;2023-04-06T04:05:04;22.37;;;12.83;;
20069;SDS011;10195;50.868;4.382;2023-04-06T04:07:30;24.73;;;12.63;;
20069;SDS011;10195;50.868;4.382;2023-04-06T04:09:55;21.37;;;12.77;;
20069;SDS011;10195;50.868;4.382;2023-04-06T04:12:21;21.40;;;13.10;;
20069;SDS011;10195;50.868;4.382;2023-04-06T04:14:47;22.93;;;12.67;;
20069;SDS011;10195;50.868;4.382;2023-04-06T04:17:12;20.63;;;13.10;;
20069;SDS011;10195;50.868;4.382;2023-04-06T04:19:38;18.93;;;12.47;;
20069;SDS011;10195;50.868;4.382;2023-04-06T04:22:04;19.97;;;12.83;;
20069;SDS011;10195;50.868;4.382;2023-04-06T04:24:30;24.03;;;13.17;;
20069;SDS011;10195;50.868;4.382;2023-04-06T04:26:56;20.30;;;11.87;;
20069;SDS011;10195;50.868;4.382;2023-04-06T04:29:22;23.50;;;13.70;;
20069;SDS011;10195;50.868;4.382;2023-04-06T04:31:50;25.03;;;13.50;;
20069;SDS011;10195;50.868;4.382;2023-04-06T04:34:17;26.13;;;12.57;;
20069;SDS011;10195;50.868;4.382;2023-04-06T04:36:45;25.87;;;13.73;;
20069;SDS011;10195;50.868;4.382;2023-04-06T04:39:11;21.20;;;11.90;;
20069;SDS011;10195;50.868;4.382;2023-04-06T04:41:37;24.47;;;13.03;;
20069;SDS011;10195;50.868;4.382;2023-04-06T04:44:02;22.23;;;13.97;;
20069;SDS011;10195;50.868;4.382;2023-04-06T04:46:28;21.93;;;13.20;;
20069;SDS011;10195;50.868;4.382;2023-04-06T04:48:54;23.07;;;12.60;;
20069;SDS011;10195;50.868;4.382;2023-04-06T04:51:20;21.90;;;13.37;;
20069;SDS011;10195;50.868;4.382;2023-04-06T04:53:45;21.87;;;13.57;;
20069;SDS011;10195;50.868;4.382;2023-04-06T04:56:11;24.23;;;13.77;;
20069;SDS011;10195;50.868;4.382;2023-04-06T04:58:37;23.20;;;12.70;;
20069;SDS011;10195;50.868;4.382;2023-04-06T05:01:02;26.30;;;13.53;;
20069;SDS011;10195;50.868;4.382;2023-04-06T05:03:28;24.77;;;13.83;;
20069;SDS011;10195;50.868;4.382;2023-04-06T05:05:54;24.73;;;13.13;;
20069;SDS011;10195;50.868;4.382;2023-04-06T05:08:20;24.60;;;13.70;;
20069;SDS011;10195;50.868;4.382;2023-04-06T05:10:46;29.33;;;14.43;;
20069;SDS011;10195;50.868;4.382;2023-04-06T05:13:13;26.10;;;13.07;;
20069;SDS011;10195;50.868;4.382;2023-04-06T05:15:39;22.73;;;13.23;;
20069;SDS011;10195;50.868;4.382;2023-04-06T05:18:05;26.27;;;14.00;;
20069;SDS011;10195;50.868;4.382;2023-04-06T05:20:32;27.07;;;13.57;;
20069;SDS011;10195;50.868;4.382;2023-04-06T05:22:58;24.47;;;14.40;;
20069;SDS011;10195;50.868;4.382;2023-04-06T05:25:24;24.10;;;13.97;;
20069;SDS011;10195;50.868;4.382;2023-04-06T05:27:50;25.43;;;13.80;;
20069;SDS011;10195;50.868;4.382;2023-04-06T05:30:16;26.63;;;15.03;;
20069;SDS011;10195;50.868;4.382;2023-04-06T05:32:41;26.33;;;14.90;;
20069;SDS011;10195;50.868;4.382;2023-04-06T05:35:09;31.60;;;13.90;;
20069;SDS011;10195;50.868;4.382;2023-04-06T05:37:35;25.33;;;13.73;;
20069;SDS011;10195;50.868;4.382;2023-04-06T05:40:00;25.10;;;14.23;;
20069;SDS011;10195;50.868;4.382;2023-04-06T05:42:26;26.13;;;13.47;;
20069;SDS011;10195;50.868;4.382;2023-04-06T05:44:52;29.70;;;13.73;;
20069;SDS011;10195;50.868;4.382;2023-04-06T05:47:18;25.73;;;14.93;;
20069;SDS011;10195;50.868;4.382;2023-04-06T05:49:43;25.93;;;14.57;;
20069;SDS011;10195;50.868;4.382;2023-04-06T05:52:09;31.60;;;14.13;;
20069;SDS011;10195;50.868;4.382;2023-04-06T05:54:36;24.33;;;14.33;;
20069;SDS011;10195;50.868;4.382;2023-04-06T05:57:03;29.27;;;14.50;;
20069;SDS011;10195;50.868;4.382;2023-04-06T05:59:31;28.23;;;15.97;;
20069;SDS011;10195;50.868;4.382;2023-04-06T06:01:57;28.67;;;15.07;;
20069;SDS011;10195;50.868;4.382;2023-04-06T06:04:23;32.70;;;15.57;;
20069;SDS011;10195;50.868;4.382;2023-04-06T06:06:48;32.07;;;15.60;;
20069;SDS011;10195;50.868;4.382;2023-04-06T06:09:14;24.50;;;14.30;;
20069;SDS011;10195;50.868;4.382;2023-04-06T06:11:40;35.37;;;15.00;;
20069;SDS011;10195;50.868;4.382;2023-04-06T06:14:06;22.30;;;14.47;;
20069;SDS011;10195;50.868;4.382;2023-04-06T06:16:32;30.63;;;14.53;;
20069;SDS011;10195;50.868;4.382;2023-04-06T06:18:58;26.87;;;14.67;;
20069;SDS011;10195;50.868;4.382;2023-04-06T06:21:24;26.70;;;15.17;;
20069;SDS011;10195;50.868;4.382;2023-04-06T06:23:50;25.23;;;15.67;;
20069;SDS011;10195;50.868;4.382;2023-04-06T06:26:16;27.77;;;15.23;;
20069;SDS011;10195;50.868;4.382;2023-04-06T06:28:42;26.80;;;14.93;;
20069;SDS011;10195;50.868;4.382;2023-04-06T06:31:07;27.60;;;15.73;;
20069;SDS011;10195;50.868;4.382;2023-04-06T06:33:33;30.37;;;14.67;;
20069;SDS011;10195;50.868;4.382;2023-04-06T06:35:59;26.57;;;14.37;;
20069;SDS011;10195;50.868;4.382;2023-04-06T06:38:25;27.10;;;13.80;;
20069;SDS011;10195;50.868;4.382;2023-04-06T06:40:52;23.83;;;14.77;;
20069;SDS011;10195;50.868;4.382;2023-04-06T06:43:18;26.03;;;15.10;;
20069;SDS011;10195;50.868;4.382;2023-04-06T06:45:45;23.97;;;14.20;;
20069;SDS011;10195;50.868;4.382;2023-04-06T06:48:10;28.67;;;13.53;;
20069;SDS011;10195;50.868;4.382;2023-04-06T06:50:37;31.83;;;15.90;;
20069;SDS011;10195;50.868;4.382;2023-04-06T06:53:02;25.07;;;15.00;;
20069;SDS011;10195;50.868;4.382;2023-04-06T06:55:28;21.73;;;15.13;;
20069;SDS011;10195;50.868;4.382;2023-04-06T06:57:54;28.37;;;15.40;;
20069;SDS011;10195;50.868;4.382;2023-04-06T07:00:20;27.10;;;14.70;;
20069;SDS011;10195;50.868;4.382;2023-04-06T07:02:46;29.40;;;14.67;;
20069;SDS011;10195;50.868;4.382;2023-04-06T07:05:12;29.10;;;15.73;;
20069;SDS011;10195;50.868;4.382;2023-04-06T07:07:38;20.63;;;14.17;;
20069;SDS011;10195;50.868;4.382;2023-04-06T07:10:04;28.30;;;14.20;;
20069;SDS011;10195;50.868;4.382;2023-04-06T07:12:31;28.43;;;14.00;;
20069;SDS011;10195;50.868;4.382;2023-04-06T07:14:57;25.97;;;13.93;;
20069;SDS011;10195;50.868;4.382;2023-04-06T07:17:22;26.57;;;13.50;;
20069;SDS011;10195;50.868;4.382;2023-04-06T07:19:48;25.87;;;13.60;;
20069;SDS011;10195;50.868;4.382;2023-04-06T07:22:14;23.50;;;13.27;;
20069;SDS011;10195;50.868;4.382;2023-04-06T07:24:40;22.10;;;11.83;;
20069;SDS011;10195;50.868;4.382;2023-04-06T07:27:06;20.57;;;11.97;;
20069;SDS011;10195;50.868;4.382;2023-04-06T07:29:32;16.13;;;10.50;;
20069;SDS011;10195;50.868;4.382;2023-04-06T07:31:58;23.70;;;10.83;;
20069;SDS011;10195;50.868;4.382;2023-04-06T07:34:23;19.70;;;10.77;;
20069;SDS011;10195;50.868;4.382;2023-04-06T07:36:49;14.40;;;10.07;;
20069;SDS011;10195;50.868;4.382;2023-04-06T07:39:15;17.30;;;9.63;;
20069;SDS011;10195;50.868;4.382;2023-04-06T07:41:40;16.87;;;9.47;;
20069;SDS011;10195;50.868;4.382;2023-04-06T07:44:09;18.23;;;10.33;;
20069;SDS011;10195;50.868;4.382;2023-04-06T07:46:35;18.67;;;9.07;;
20069;SDS011;10195;50.868;4.382;2023-04-06T07:49:01;16.97;;;9.20;;
20069;SDS011;10195;50.868;4.382;2023-04-06T07:51:27;15.93;;;9.43;;
20069;SDS011;10195;50.868;4.382;2023-04-06T07:53:53;14.60;;;7.93;;
20069;SDS011;10195;50.868;4.382;2023-04-06T07:56:18;17.03;;;8.40;;
20069;SDS011;10195;50.868;4.382;2023-04-06T07:58:45;12.87;;;8.90;;
20069;SDS011;10195;50.868;4.382;2023-04-06T08:01:11;16.80;;;8.47;;
20069;SDS011;10195;50.868;4.382;2023-04-06T08:03:37;13.80;;;8.67;;
20069;SDS011;10195;50.868;4.382;2023-04-06T08:06:03;14.57;;;8.30;;
20069;SDS011;10195;50.868;4.382;2023-04-06T08:08:29;14.23;;;8.83;;
20069;SDS011;10195;50.868;4.382;2023-04-06T08:10:55;11.97;;;7.90;;
20069;SDS011;10195;50.868;4.382;2023-04-06T08:13:21;13.70;;;8.00;;
20069;SDS011;10195;50.868;4.382;2023-04-06T08:15:47;14.43;;;8.03;;
20069;SDS011;10195;50.868;4.382;2023-04-06T08:18:12;11.70;;;7.50;;
20069;SDS011;10195;50.868;4.382;2023-04-06T08:20:41;13.93;;;7.77;;
20069;SDS011;10195;50.868;4.382;2023-04-06T08:23:07;13.00;;;7.60;;
20069;SDS011;10195;50.868;4.382;2023-04-06T08:25:35;15.80;;;7.87;;
20069;SDS011;10195;50.868;4.382;2023-04-06T08:28:01;14.67;;;7.97;;
20069;SDS011;10195;50.868;4.382;2023-04-06T08:30:28;16.00;;;7.77;;
20069;SDS011;10195;50.868;4.382;2023-04-06T08:32:54;13.00;;;7.93;;
20069;SDS011;10195;50.868;4.382;2023-04-06T08:35:20;11.60;;;7.20;;
20069;SDS011;10195;50.868;4.382;2023-04-06T08:37:46;14.97;;;8.70;;
20069;SDS011;10195;50.868;4.382;2023-04-06T08:40:12;14.37;;;8.07;;
20069;SDS011;10195;50.868;4.382;2023-04-06T08:42:44;14.33;;;8.30;;
20069;SDS011;10195;50.868;4.382;2023-04-06T08:45:17;16.30;;;8.97;;
20069;SDS011;10195;50.868;4.382;2023-04-06T08:47:46;15.50;;;9.17;;
20069;SDS011;10195;50.868;4.382;2023-04-06T08:50:13;15.30;;;8.90;;
20069;SDS011;10195;50.868;4.382;2023-04-06T08:52:41;13.47;;;8.07;;
20069;SDS011;10195;50.868;4.382;2023-04-06T08:55:11;16.47;;;9.13;;
20069;SDS011;10195;50.868;4.382;2023-04-06T08:57:37;14.40;;;7.50;;
20069;SDS011;10195;50.868;4.382;2023-04-06T09:00:04;16.10;;;8.40;;
20069;SDS011;10195;50.868;4.382;2023-04-06T09:02:32;19.03;;;9.10;;
20069;SDS011;10195;50.868;4.382;2023-04-06T09:04:58;15.83;;;9.50;;
20069;SDS011;10195;50.868;4.382;2023-04-06T09:07:25;16.27;;;8.90;;
20069;SDS011;10195;50.868;4.382;2023-04-06T09:09:50;13.77;;;8.37;;
20069;SDS011;10195;50.868;4.382;2023-04-06T09:14:55;20.13;;;9.27;;
20069;SDS011;10195;50.868;4.382;2023-04-06T09:17:22;16.03;;;8.77;;
20069;SDS011;10195;50.868;4.382;2023-04-06T09:19:52;13.23;;;8.57;;
20069;SDS011;10195;50.868;4.382;2023-04-06T09:22:18;14.97;;;9.60;;
20069;SDS011;10195;50.868;4.382;2023-04-06T09:24:52;13.07;;;7.47;;
20069;SDS011;10195;50.868;4.382;2023-04-06T09:27:34;20.60;;;8.90;;
20069;SDS011;10195;50.868;4.382;2023-04-06T09:30:08;15.10;;;8.50;;
20069;SDS011;10195;50.868;4.382;2023-04-06T09:32:49;14.03;;;8.57;;
20069;SDS011;10195;50.868;4.382;2023-04-06T09:35:15;13.23;;;8.20;;
20069;SDS011;10195;50.868;4.382;2023-04-06T09:37:42;12.33;;;7.63;;
20069;SDS011;10195;50.868;4.382;2023-04-06T09:40:08;12.83;;;7.47;;
20069;SDS011;10195;50.868;4.382;2023-04-06T09:42:34;13.57;;;7.63;;
20069;SDS011;10195;50.868;4.382;2023-04-06T09:45:01;13.37;;;8.03;;
20069;SDS011;10195;50.868;4.382;2023-04-06T09:47:27;12.30;;;8.03;;
20069;SDS011;10195;50.868;4.382;2023-04-06T09:49:56;12.30;;;7.93;;
20069;SDS011;10195;50.868;4.382;2023-04-06T09:52:27;12.33;;;7.50;;
20069;SDS011;10195;50.868;4.382;2023-04-06T09:54:59;12.13;;;7.60;;
20069;SDS011;10195;50.868;4.382;2023-04-06T10:00:05;12.03;;;8.13;;
20069;SDS011;10195;50.868;4.382;2023-04-06T10:08:20;12.47;;;8.33;;
20069;SDS011;10195;50.868;4.382;2023-04-06T10:10:49;12.70;;;8.33;;
20069;SDS011;10195;50.868;4.382;2023-04-06T10:13:15;11.27;;;8.27;;
20069;SDS011;10195;50.868;4.382;2023-04-06T10:15:42;14.03;;;7.80;;
20069;SDS011;10195;50.868;4.382;2023-04-06T10:18:08;15.13;;;8.40;;
20069;SDS011;10195;50.868;4.382;2023-04-06T10:23:19;10.80;;;7.30;;
20069;SDS011;10195;50.868;4.382;2023-04-06T10:26:03;15.23;;;8.03;;
20069;SDS011;10195;50.868;4.382;2023-04-06T10:28:32;11.50;;;8.27;;
20069;SDS011;10195;50.868;4.382;2023-04-06T10:31:01;14.07;;;7.93;;
20069;SDS011;10195;50.868;4.382;2023-04-06T10:33:29;13.70;;;8.30;;
20069;SDS011;10195;50.868;4.382;2023-04-06T10:35:55;12.17;;;8.27;;
20069;SDS011;10195;50.868;4.382;2023-04-06T10:38:21;10.50;;;7.43;;
20069;SDS011;10195;50.868;4.382;2023-04-06T10:41:05;12.20;;;8.37;;
20069;SDS011;10195;50.868;4.382;2023-04-06T10:43:35;12.03;;;8.40;;
20069;SDS011;10195;50.868;4.382;2023-04-06T10:46:03;12.30;;;8.23;;
20069;SDS011;10195;50.868;4.382;2023-04-06T10:48:41;15.97;;;8.47;;
20069;SDS011;10195;50.868;4.382;2023-04-06T10:51:18;11.53;;;8.33;;
20069;SDS011;10195;50.868;4.382;2023-04-06T10:53:46;17.77;;;9.10;;
20069;SDS011;10195;50.868;4.382;2023-04-06T10:56:14;18.40;;;9.27;;
20069;SDS011;10195;50.868;4.382;2023-04-06T10:58:44;16.40;;;10.03;;
20069;SDS011;10195;50.868;4.382;2023-04-06T11:01:18;15.10;;;9.23;;
20069;SDS011;10195;50.868;4.382;2023-04-06T11:03:47;14.37;;;8.80;;
20069;SDS011;10195;50.868;4.382;2023-04-06T11:06:17;14.00;;;8.27;;
20069;SDS011;10195;50.868;4.382;2023-04-06T11:08:51;14.77;;;8.73;;
20069;SDS011;10195;50.868;4.382;2023-04-06T11:11:19;15.07;;;9.17;;
20069;SDS011;10195;50.868;4.382;2023-04-06T11:18:54;11.90;;;8.90;;
20069;SDS011;10195;50.868;4.382;2023-04-06T11:21:37;16.13;;;9.40;;
20069;SDS011;10195;50.868;4.382;2023-04-06T11:26:41;13.70;;;9.50;;
20069;SDS011;10195;50.868;4.382;2023-04-06T11:29:09;16.37;;;8.90;;
20069;SDS011;10195;50.868;4.382;2023-04-06T11:31:39;17.60;;;9.57;;
20069;SDS011;10195;50.868;4.382;2023-04-06T11:34:10;15.43;;;9.07;;
20069;SDS011;10195;50.868;4.382;2023-04-06T11:36:43;13.00;;;8.90;;
20069;SDS011;10195;50.868;4.382;2023-04-06T11:39:11;14.10;;;8.37;;
20069;SDS011;10195;50.868;4.382;2023-04-06T11:41:38;16.17;;;9.27;;
20069;SDS011;10195;50.868;4.382;2023-04-06T11:44:05;15.87;;;9.30;;
20069;SDS011;10195;50.868;4.382;2023-04-06T11:46:31;13.27;;;9.30;;
20069;SDS011;10195;50.868;4.382;2023-04-06T11:49:00;13.80;;;8.43;;
20069;SDS011;10195;50.868;4.382;2023-04-06T11:51:27;12.00;;;8.07;;
20069;SDS011;10195;50.868;4.382;2023-04-06T11:53:53;15.07;;;9.43;;
20069;SDS011;10195;50.868;4.382;2023-04-06T11:56:24;16.67;;;9.33;;
20069;SDS011;10195;50.868;4.382;2023-04-06T11:58:52;15.83;;;9.17;;
20069;SDS011;10195;50.868;4.382;2023-04-06T12:01:23;14.03;;;9.00;;
20069;SDS011;10195;50.868;4.382;2023-04-06T12:03:49;15.53;;;9.33;;
20069;SDS011;10195;50.868;4.382;2023-04-06T12:06:16;14.27;;;9.57;;
20069;SDS011;10195;50.868;4.382;2023-04-06T12:08:42;14.20;;;10.07;;
20069;SDS011;10195;50.868;4.382;2023-04-06T12:11:08;14.70;;;9.27;;
20069;SDS011;10195;50.868;4.382;2023-04-06T12:13:34;13.67;;;9.13;;
20069;SDS011;10195;50.868;4.382;2023-04-06T12:15:59;13.77;;;10.23;;
20069;SDS011;10195;50.868;4.382;2023-04-06T12:18:25;13.43;;;8.40;;
20069;SDS011;10195;50.868;4.382;2023-04-06T12:20:51;16.13;;;8.57;;
20069;SDS011;10195;50.868;4.382;2023-04-06T12:23:18;12.43;;;8.40;;
20069;SDS011;10195;50.868;4.382;2023-04-06T12:25:44;15.13;;;9.43;;
20069;SDS011;10195;50.868;4.382;2023-04-06T12:28:10;18.80;;;9.23;;
20069;SDS011;10195;50.868;4.382;2023-04-06T12:30:36;13.00;;;8.77;;
20069;SDS011;10195;50.868;4.382;2023-04-06T12:33:02;14.23;;;9.70;;
20069;SDS011;10195;50.868;4.382;2023-04-06T12:35:28;12.20;;;8.73;;
20069;SDS011;10195;50.868;4.382;2023-04-06T12:37:54;15.47;;;9.67;;
20069;SDS011;10195;50.868;4.382;2023-04-06T12:40:20;14.10;;;9.17;;
20069;SDS011;10195;50.868;4.382;2023-04-06T12:42:46;13.77;;;9.17;;
20069;SDS011;10195;50.868;4.382;2023-04-06T12:45:11;12.83;;;9.13;;
20069;SDS011;10195;50.868;4.382;2023-04-06T12:47:37;10.97;;;8.23;;
20069;SDS011;10195;50.868;4.382;2023-04-06T12:50:05;12.10;;;7.90;;
20069;SDS011;10195;50.868;4.382;2023-04-06T12:52:32;12.93;;;9.23;;
20069;SDS011;10195;50.868;4.382;2023-04-06T12:55:00;14.37;;;9.20;;
20069;SDS011;10195;50.868;4.382;2023-04-06T12:57:27;14.33;;;9.93;;
20069;SDS011;10195;50.868;4.382;2023-04-06T12:59:52;14.13;;;9.57;;
20069;SDS011;10195;50.868;4.382;2023-04-06T13:02:18;14.07;;;9.63;;
20069;SDS011;10195;50.868;4.382;2023-04-06T13:04:48;14.00;;;9.40;;
20069;SDS011;10195;50.868;4.382;2023-04-06T13:07:14;13.50;;;9.27;;
20069;SDS011;10195;50.868;4.382;2023-04-06T13:09:40;13.27;;;9.27;;
20069;SDS011;10195;50.868;4.382;2023-04-06T13:12:06;16.10;;;10.13;;
20069;SDS011;10195;50.868;4.382;2023-04-06T13:14:32;14.03;;;9.83;;
20069;SDS011;10195;50.868;4.382;2023-04-06T13:16:57;13.20;;;9.77;;
20069;SDS011;10195;50.868;4.382;2023-04-06T13:19:23;17.17;;;10.83;;
20069;SDS011;10195;50.868;4.382;2023-04-06T13:21:49;15.07;;;10.53;;
20069;SDS011;10195;50.868;4.382;2023-04-06T13:24:15;12.70;;;9.57;;
20069;SDS011;10195;50.868;4.382;2023-04-06T13:26:41;15.40;;;9.77;;
20069;SDS011;10195;50.868;4.382;2023-04-06T13:29:07;17.70;;;10.43;;
20069;SDS011;10195;50.868;4.382;2023-04-06T13:31:32;13.80;;;10.20;;
20069;SDS011;10195;50.868;4.382;2023-04-06T13:33:58;15.77;;;10.40;;
20069;SDS011;10195;50.868;4.382;2023-04-06T13:36:24;13.73;;;9.87;;
20069;SDS011;10195;50.868;4.382;2023-04-06T13:38:51;16.03;;;9.50;;
20069;SDS011;10195;50.868;4.382;2023-04-06T13:41:21;14.93;;;10.30;;
20069;SDS011;10195;50.868;4.382;2023-04-06T13:43:48;15.30;;;10.33;;
20069;SDS011;10195;50.868;4.382;2023-04-06T13:46:14;20.70;;;10.57;;
20069;SDS011;10195;50.868;4.382;2023-04-06T13:48:40;14.30;;;10.70;;
20069;SDS011;10195;50.868;4.382;2023-04-06T13:51:09;15.27;;;10.60;;
20069;SDS011;10195;50.868;4.382;2023-04-06T13:53:42;18.37;;;10.57;;
20069;SDS011;10195;50.868;4.382;2023-04-06T13:56:08;16.00;;;10.37;;
20069;SDS011;10195;50.868;4.382;2023-04-06T13:58:34;17.97;;;10.80;;
20069;SDS011;10195;50.868;4.382;2023-04-06T14:01:01;15.83;;;10.80;;
20069;SDS011;10195;50.868;4.382;2023-04-06T14:03:31;15.60;;;11.10;;
20069;SDS011;10195;50.868;4.382;2023-04-06T14:05:57;14.67;;;10.80;;
20069;SDS011;10195;50.868;4.382;2023-04-06T14:08:22;18.93;;;11.07;;
20069;SDS011;10195;50.868;4.382;2023-04-06T14:10:48;14.00;;;10.03;;
20069;SDS011;10195;50.868;4.382;2023-04-06T14:13:14;15.70;;;10.67;;
20069;SDS011;10195;50.868;4.382;2023-04-06T14:15:41;21.67;;;10.87;;
20069;SDS011;10195;50.868;4.382;2023-04-06T14:18:07;15.73;;;11.80;;
20069;SDS011;10195;50.868;4.382;2023-04-06T14:20:33;15.57;;;10.33;;
20069;SDS011;10195;50.868;4.382;2023-04-06T14:23:03;15.57;;;10.17;;
20069;SDS011;10195;50.868;4.382;2023-04-06T14:25:29;13.50;;;10.53;;
20069;SDS011;10195;50.868;4.382;2023-04-06T14:27:59;19.30;;;10.93;;
20069;SDS011;10195;50.868;4.382;2023-04-06T14:30:25;16.30;;;10.60;;
20069;SDS011;10195;50.868;4.382;2023-04-06T14:32:50;17.50;;;11.10;;
20069;SDS011;10195;50.868;4.382;2023-04-06T14:35:16;18.97;;;12.23;;
20069;SDS011;10195;50.868;4.382;2023-04-06T14:37:42;15.03;;;11.07;;
20069;SDS011;10195;50.868;4.382;2023-04-06T14:40:07;19.80;;;11.70;;
20069;SDS011;10195;50.868;4.382;2023-04-06T14:42:35;14.20;;;11.07;;
20069;SDS011;10195;50.868;4.382;2023-04-06T14:45:00;16.70;;;11.70;;